D/T METAR WX W/SPE G/SPE TEMP DEWP FEEL
31/01/23 12:50 EGMD 311250Z 26013KT 9999 SCT017 SCT023 11/08 Q1024 15.0mph 11°C 8°C 11.4°C
31/01/23 04:20 EGMD 310420Z AUTO 27009KT 9999 NCD 04/02 Q1026 10.4mph 4°C 2°C 2.4°C
30/01/23 12:50 EGMD 301250Z 32015KT CAVOK 09/03 Q1025 17.3mph 9°C 3°C 7.7°C
30/01/23 11:50 EGMD 301150Z 31015KT CAVOK 09/03 Q1025 17.3mph 9°C 3°C 7.7°C
30/01/23 10:50 EGMD 301050Z 32014KT CAVOK 09/03 Q1025 16.1mph 9°C 3°C 7.7°C
30/01/23 07:50 EGMD 300750Z AUTO 28009KT 9999 BKN015/// BKN020/// OVC033/// 07/06 Q1023 10.4mph 7°C 6°C 6.6°C
30/01/23 06:50 EGMD 300650Z AUTO 26008KT 9999 BKN019/// BKN024/// 07/06 Q1022 9.2mph 7°C 6°C 6.6°C
09/01/23 06:20 EGMD 090620Z AUTO 26011KT 9999 NCD 06/05 Q0996 12.7mph 6°C 5°C 5.3°C
09/01/23 05:50 EGMD 090550Z AUTO 26011KT 9999 NCD 07/05 Q0995 12.7mph 7°C 5°C 6.3°C
09/01/23 05:20 EGMD 090520Z AUTO 26012KT 9999 NCD 07/05 Q0995 13.8mph 7°C 5°C 6.3°C
09/01/23 04:50 EGMD 090450Z AUTO 27013KT 9999 NCD 07/05 Q0994 15.0mph 7°C 5°C 6.3°C
09/01/23 04:20 EGMD 090420Z AUTO 26013KT 9999 NCD 07/05 Q0994 15.0mph 7°C 5°C 6.3°C
09/01/23 03:50 EGMD 090350Z AUTO 25015KT 9999 NCD 07/05 Q0994 17.3mph 7°C 5°C 6.3°C
09/01/23 03:20 EGMD 090320Z AUTO 26013KT 9999 SCT018/// 08/05 Q0993 15.0mph 8°C 5°C 7.3°C
09/01/23 02:50 EGMD 090250Z AUTO 27014KT 9999 FEW009/// BKN015/// BKN020/// 08/06 Q0993 16.1mph 8°C 6°C 7.6°C
09/01/23 02:20 EGMD 090220Z AUTO 26015KT 9999 SCT015/// BKN019/// OVC032/// 08/06 Q0992 17.3mph 8°C 6°C 7.6°C
09/01/23 01:20 EGMD 090120Z AUTO 25022KT 9999 BKN022/// BKN027/// OVC034/// 08/06 Q0991 25.3mph 8°C 6°C 7.6°C
09/01/23 00:50 EGMD 090050Z AUTO 25022G32KT 9999 SCT028/// BKN036/// BKN043/// 09/06 Q0990 25.3mph 36.8mph 9°C 6°C 8.6°C
09/01/23 00:20 EGMD 090020Z AUTO 24025KT 9999 FEW016/// SCT021/// BKN032/// 10/06 Q0990 RERA 28.8mph 10°C 6°C 9.6°C
08/01/23 23:50 EGMD 082350Z AUTO 22025KT 9999 -RA SCT014/// BKN018/// BKN029/// 10/08 Q0990 RERA -RA 28.8mph 10°C 8°C 10.4°C
08/01/23 23:20 EGMD 082320Z AUTO 22023KT 9999 FEW013/// BKN018/// BKN024/// 09/07 Q0991 26.5mph 9°C 7°C 9.0°C
08/01/23 22:50 EGMD 082250Z AUTO 24015KT 9999 -RA FEW010/// SCT015/// BKN021/// 08/07 Q0991 RERA -RA 17.3mph 8°C 7°C 8.0°C
08/01/23 22:20 EGMD 082220Z AUTO 21019KT 9999 FEW031/// SCT039/// 09/06 Q0991 21.9mph 9°C 6°C 8.6°C
08/01/23 21:50 EGMD 082150Z AUTO 23013KT 9999 FEW033/// 09/05 Q0991 15.0mph 9°C 5°C 8.3°C
08/01/23 20:20 EGMD 082020Z AUTO 25010KT 9999 FEW034/// 08/05 Q0992 11.5mph 8°C 5°C 7.3°C
08/01/23 19:20 EGMD 081920Z AUTO 26010KT 9999 NCD 08/05 Q0992 11.5mph 8°C 5°C 7.3°C
08/01/23 18:50 EGMD 081850Z AUTO 26015KT 9999 NCD 09/06 Q0992 17.3mph 9°C 6°C 8.6°C
08/01/23 18:20 EGMD 081820Z 24020G31KT 9999 FEW013 SCT018 BKN023 09/07 Q0992 23.0mph 35.7mph 9°C 7°C 9.0°C
08/01/23 17:50 EGMD 081750Z 23018KT 9999 FEW005 SCT036 BKN044 09/07 Q0991 20.7mph 9°C 7°C 9.0°C
08/01/23 17:20 EGMD 081720Z 23020KT 9999 -RA FEW029 BKN036 BKN044 09/07 Q0992 -RA 23.0mph 9°C 7°C 9.0°C
08/01/23 16:50 EGMD 081650Z 25016G27KT 9999 -SHRA FEW009 SCT025 BKN030 08/06 Q0992 -SHRA 18.4mph 31.1mph 8°C 6°C 7.6°C
08/01/23 16:20 EGMD 081620Z 26017KT 9999 BKN018 BKN023 08/06 Q0992 RERA 19.6mph 8°C 6°C 7.6°C
08/01/23 15:50 EGMD 081550Z 22024KT 9999 SHRA FEW017 BKN027 11/08 Q0992 SHRA 27.6mph 11°C 8°C 11.4°C
08/01/23 15:20 EGMD 081520Z 21025KT 9999 SCT020 BKN031 11/08 Q0992 28.8mph 11°C 8°C 11.4°C
08/01/23 14:20 EGMD 081420Z 21026KT 9999 SCT018 BKN024 10/08 Q0993 29.9mph 10°C 8°C 10.4°C
08/01/23 13:50 EGMD 081350Z 20026KT 9999 -SHRA SCT018 SCT023 11/08 Q0993 -SHRA 29.9mph 11°C 8°C 11.4°C
08/01/23 13:20 EGMD 081320Z 21028KT 9999 SCT017 SCT023TCU 11/07 Q0994 32.2mph 11°C 7°C 11.0°C
08/01/23 12:50 EGMD 081250Z 21026KT 9999 BKN016 11/08 Q0994 29.9mph 11°C 8°C 11.4°C
08/01/23 12:20 EGMD 081220Z 21025KT 9999 BKN016 11/08 Q0995 28.8mph 11°C 8°C 11.4°C
08/01/23 11:50 EGMD 081150Z 21024KT 9999 BKN017 11/08 Q0995 27.6mph 11°C 8°C 11.4°C
08/01/23 11:20 EGMD 081120Z 22024KT 9999 BKN016 10/08 Q0996 27.6mph 10°C 8°C 10.4°C
08/01/23 10:50 EGMD 081050Z 22024KT 9999 FEW016 SCT022 10/08 Q0996 27.6mph 10°C 8°C 10.4°C
08/01/23 10:20 EGMD 081020Z 21025KT 9999 FEW016 BKN023 10/08 Q0997 28.8mph 10°C 8°C 10.4°C
08/01/23 09:50 EGMD 080950Z 21022KT 9999 FEW015 SCT020 10/07 Q0997 25.3mph 10°C 7°C 10.0°C
08/01/23 09:20 EGMD 080920Z 22024KT 9999 FEW016 SCT035 10/07 Q0997 27.6mph 10°C 7°C 10.0°C
08/01/23 08:50 EGMD 080850Z 22025KT 9999 -SHRA SCT016 SCT035 10/07 Q0997 -SHRA 28.8mph 10°C 7°C 10.0°C
08/01/23 08:20 EGMD 080820Z 22021KT 9999 SCT017 BKN023 10/07 Q0997 24.2mph 10°C 7°C 10.0°C
08/01/23 07:50 EGMD 080750Z AUTO 22017KT 9999 FEW014/// BKN037/// 08/07 Q0998 19.6mph 8°C 7°C 8.0°C
08/01/23 07:20 EGMD 080720Z AUTO 23022KT 9999 FEW019/// SCT025/// BKN038/// 10/07 Q0998 25.3mph 10°C 7°C 10.0°C
08/01/23 06:50 EGMD 080650Z AUTO 22023KT 9999 BKN020/// BKN025/// 10/07 Q0998 26.5mph 10°C 7°C 10.0°C
08/01/23 06:20 EGMD 080620Z AUTO 22022KT 9999 FEW019/// 10/07 Q0998 25.3mph 10°C 7°C 10.0°C
08/01/23 05:50 EGMD 080550Z AUTO 22024KT 9999 SCT019/// SCT024/// BKN040/// 10/07 Q0998 27.6mph 10°C 7°C 10.0°C
08/01/23 05:20 EGMD 080520Z AUTO 23022KT 9999 BKN021/// BKN027/// OVC035/// 10/07 Q0998 25.3mph 10°C 7°C 10.0°C
08/01/23 04:50 EGMD 080450Z AUTO 22022KT 9999 SCT021/// BKN026/// BKN032/// 10/07 Q0999 25.3mph 10°C 7°C 10.0°C
08/01/23 04:20 EGMD 080420Z AUTO 22021KT 9999 BKN019/// BKN025/// 10/07 Q0999 24.2mph 10°C 7°C 10.0°C
08/01/23 03:50 EGMD 080350Z AUTO 23020KT 9999 SCT021/// SCT026/// BKN032/// 10/07 Q0999 23.0mph 10°C 7°C 10.0°C
08/01/23 03:20 EGMD 080320Z AUTO 23021KT 9999 FEW021/// SCT026/// BKN032/// 10/07 Q0999 24.2mph 10°C 7°C 10.0°C
08/01/23 02:50 EGMD 080250Z AUTO 23019KT 9999 BKN021/// BKN026/// 10/07 Q0999 21.9mph 10°C 7°C 10.0°C
08/01/23 02:20 EGMD 080220Z AUTO 23017G27KT 9999 BKN020/// BKN025/// 10/07 Q1000 19.6mph 31.1mph 10°C 7°C 10.0°C
08/01/23 01:50 EGMD 080150Z AUTO 23019KT 9999 SCT019/// BKN024/// BKN031/// 10/07 Q0999 21.9mph 10°C 7°C 10.0°C
08/01/23 01:20 EGMD 080120Z AUTO 22022KT 9999 FEW020/// SCT030/// 10/07 Q1000 25.3mph 10°C 7°C 10.0°C
08/01/23 00:20 EGMD 080020Z AUTO 23018KT 9999 BKN023/// 10/07 Q1000 20.7mph 10°C 7°C 10.0°C
07/01/23 23:50 EGMD 072350Z AUTO 23019KT 9999 SCT021/// 10/07 Q1000 21.9mph 10°C 7°C 10.0°C
07/01/23 23:20 EGMD 072320Z AUTO 23020KT 9999 FEW022/// BKN043/// 10/07 Q1000 23.0mph 10°C 7°C 10.0°C
07/01/23 22:50 EGMD 072250Z AUTO 23019KT 9999 FEW019/// SCT033/// BKN038/// 10/07 Q1000 21.9mph 10°C 7°C 10.0°C
07/01/23 22:20 EGMD 072220Z AUTO 23021KT 9999 FEW031/// BKN039/// 10/07 Q1000 24.2mph 10°C 7°C 10.0°C
07/01/23 21:50 EGMD 072150Z AUTO 24017KT 9999 FEW037/// 10/07 Q1000 19.6mph 10°C 7°C 10.0°C
07/01/23 21:20 EGMD 072120Z AUTO 24019KT 9999 FEW033/// SCT038/// 10/06 Q1000 21.9mph 10°C 6°C 9.6°C
07/01/23 20:50 EGMD 072050Z AUTO 24020KT 9999 FEW027/// BKN032/// 10/06 Q1000 23.0mph 10°C 6°C 9.6°C
07/01/23 20:20 EGMD 072020Z AUTO 24019KT 9999 NCD 10/06 Q1000 21.9mph 10°C 6°C 9.6°C
07/01/23 19:50 EGMD 071950Z AUTO 24023G37KT 9999 FEW047/// 10/07 Q1000 26.5mph 42.6mph 10°C 7°C 10.0°C
07/01/23 19:20 EGMD 071920Z AUTO 24025G36KT 9999 SCT022/// BKN028/// BKN036/// 11/08 Q1000 28.8mph 41.4mph 11°C 8°C 11.4°C
07/01/23 18:50 EGMD 071850Z AUTO 23027G39KT 9999 -RA FEW012/// SCT023/// BKN035/// 10/08 Q0999 RERA -RA 31.1mph 44.9mph 10°C 8°C 10.4°C
07/01/23 18:20 EGMD 071820Z 21028G40KT 9999 BKN018 12/10 Q0998 32.2mph 46.0mph 12°C 10°C 13.3°C
07/01/23 17:50 EGMD 071750Z 20027KT 9999 FEW013 SCT018 BKN028 12/10 Q0998 31.1mph 12°C 10°C 13.3°C
07/01/23 17:20 EGMD 071720Z 19025KT 9999 FEW012 SCT016 BKN042 11/10 Q0998 28.8mph 11°C 10°C 12.3°C
07/01/23 16:50 EGMD 071650Z 19024G34KT 9999 FEW014 SCT019 BKN040 12/10 Q0998 RERA 27.6mph 39.1mph 12°C 10°C 13.3°C
07/01/23 16:20 EGMD 071620Z 20024KT 9999 RA FEW014 SCT018 BKN042 12/10 Q0999 RA 27.6mph 12°C 10°C 13.3°C
07/01/23 15:50 EGMD 071550Z 21022KT 9999 SCT014 BKN019 12/10 Q0999 25.3mph 12°C 10°C 13.3°C
07/01/23 15:20 EGMD 071520Z 20026KT 9999 SCT017 12/10 Q1000 29.9mph 12°C 10°C 13.3°C
07/01/23 14:50 EGMD 071450Z 21028G38KT 9999 SCT015 BKN026 12/09 Q1000 32.2mph 43.7mph 12°C 9°C 12.8°C
07/01/23 14:20 EGMD 071420Z 21026G37KT 9999 BKN016 12/09 Q1000 29.9mph 42.6mph 12°C 9°C 12.8°C
07/01/23 13:50 EGMD 071350Z 20026KT 9999 BKN017 11/09 Q1000 29.9mph 11°C 9°C 11.8°C
07/01/23 12:50 EGMD 071250Z 20026G38KT 9999 BKN021 11/09 Q1001 29.9mph 43.7mph 11°C 9°C 11.8°C
07/01/23 12:20 EGMD 071220Z 20024KT 9999 FEW023 BKN028 11/08 Q1002 27.6mph 11°C 8°C 11.4°C
07/01/23 11:50 EGMD 071150Z 20029G39KT 9999 FEW019 BKN040 11/08 Q1002 33.4mph 44.9mph 11°C 8°C 11.4°C
07/01/23 11:20 EGMD 071120Z 19027KT 9999 -RA FEW018 BKN035 11/09 Q1002 -RA 31.1mph 11°C 9°C 11.8°C
07/01/23 10:50 EGMD 071050Z 19026KT 9999 -RA FEW019 BKN040 11/08 Q1003 -RA 29.9mph 11°C 8°C 11.4°C
07/01/23 10:20 EGMD 071020Z 19026G37KT 9999 -RA FEW022 BKN045 11/08 Q1003 -RA 29.9mph 42.6mph 11°C 8°C 11.4°C
07/01/23 09:50 EGMD 070950Z 18025KT 8000 -RA BKN045 11/08 Q1004 -RA 28.8mph 11°C 8°C 11.4°C
07/01/23 09:20 EGMD 070920Z 18023G36KT 9999 BKN045 11/08 Q1004 26.5mph 41.4mph 11°C 8°C 11.4°C
07/01/23 08:50 EGMD 070850Z 18024KT 9999 FEW025 11/08 Q1005 27.6mph 11°C 8°C 11.4°C
07/01/23 08:20 EGMD 070820Z 18024KT 9999 FEW025 11/08 Q1005 27.6mph 11°C 8°C 11.4°C
07/01/23 07:50 EGMD 070750Z AUTO 18024G34KT 9999 NCD 11/08 Q1006 27.6mph 39.1mph 11°C 8°C 11.4°C
07/01/23 07:20 EGMD 070720Z AUTO 18023KT 9999 NCD 12/08 Q1006 26.5mph 12°C 8°C 12.4°C
07/01/23 06:50 EGMD 070650Z AUTO 19024KT 9999 NCD 12/07 Q1007 27.6mph 12°C 7°C 12.0°C